sensor_id;sensor_type;location;lat;lon;timestamp;pressure;altitude;pressure_sealevel;temperature
71807;BMP280;59655;42.590;23.364;2024-03-23T00:53:51;91413.38;;;5.88
71807;BMP280;59655;42.590;23.364;2024-03-23T00:56:17;91412.53;;;5.80
71807;BMP280;59655;42.590;23.364;2024-03-23T00:58:42;91414.09;;;5.89
71807;BMP280;59655;42.590;23.364;2024-03-23T01:01:07;91405.69;;;5.90
71807;BMP280;59655;42.590;23.364;2024-03-23T01:03:33;91407.19;;;5.85
71807;BMP280;59655;42.590;23.364;2024-03-23T01:06:02;91407.41;;;5.88
71807;BMP280;59655;42.590;23.364;2024-03-23T01:08:28;91405.97;;;5.86
71807;BMP280;59655;42.590;23.364;2024-03-23T01:10:57;91397.66;;;5.82
71807;BMP280;59655;42.590;23.364;2024-03-23T01:13:23;91398.28;;;5.75
71807;BMP280;59655;42.590;23.364;2024-03-23T01:15:52;91396.16;;;5.74
71807;BMP280;59655;42.590;23.364;2024-03-23T01:18:19;91392.06;;;5.73
71807;BMP280;59655;42.590;23.364;2024-03-23T01:20:44;91395.41;;;5.73
71807;BMP280;59655;42.590;23.364;2024-03-23T01:23:10;91390.81;;;5.79
71807;BMP280;59655;42.590;23.364;2024-03-23T01:25:35;91389.88;;;5.77
71807;BMP280;59655;42.590;23.364;2024-03-23T01:28:01;91401.25;;;5.66
71807;BMP280;59655;42.590;23.364;2024-03-23T01:30:26;91394.50;;;5.71
71807;BMP280;59655;42.590;23.364;2024-03-23T01:32:51;91390.00;;;5.65
71807;BMP280;59655;42.590;23.364;2024-03-23T01:35:17;91387.38;;;5.65
71807;BMP280;59655;42.590;23.364;2024-03-23T01:37:42;91386.19;;;5.66
71807;BMP280;59655;42.590;23.364;2024-03-23T01:40:08;91387.31;;;5.71
71807;BMP280;59655;42.590;23.364;2024-03-23T01:42:33;91389.50;;;5.67
71807;BMP280;59655;42.590;23.364;2024-03-23T01:44:58;91386.81;;;5.73
71807;BMP280;59655;42.590;23.364;2024-03-23T01:47:24;91385.00;;;5.81
71807;BMP280;59655;42.590;23.364;2024-03-23T01:49:49;91381.25;;;5.76
71807;BMP280;59655;42.590;23.364;2024-03-23T01:52:14;91382.59;;;5.83
71807;BMP280;59655;42.590;23.364;2024-03-23T01:54:40;91384.19;;;5.73
71807;BMP280;59655;42.590;23.364;2024-03-23T01:57:06;91385.91;;;5.70
71807;BMP280;59655;42.590;23.364;2024-03-23T01:59:32;91374.75;;;5.64
71807;BMP280;59655;42.590;23.364;2024-03-23T02:01:57;91389.22;;;5.71
71807;BMP280;59655;42.590;23.364;2024-03-23T02:04:23;91386.88;;;5.67
71807;BMP280;59655;42.590;23.364;2024-03-23T02:06:48;91387.09;;;5.69
71807;BMP280;59655;42.590;23.364;2024-03-23T02:09:14;91390.66;;;5.72
71807;BMP280;59655;42.590;23.364;2024-03-23T02:11:40;91393.38;;;5.66
71807;BMP280;59655;42.590;23.364;2024-03-23T02:14:05;91392.75;;;5.60
71807;BMP280;59655;42.590;23.364;2024-03-23T02:16:31;91388.50;;;5.57
71807;BMP280;59655;42.590;23.364;2024-03-23T02:18:56;91388.50;;;5.57
71807;BMP280;59655;42.590;23.364;2024-03-23T02:21:21;91393.75;;;5.57
71807;BMP280;59655;42.590;23.364;2024-03-23T02:23:47;91393.03;;;5.56
71807;BMP280;59655;42.590;23.364;2024-03-23T02:26:12;91393.53;;;5.55
71807;BMP280;59655;42.590;23.364;2024-03-23T02:28:39;91398.09;;;5.54
71807;BMP280;59655;42.590;23.364;2024-03-23T02:31:04;91396.88;;;5.55
71807;BMP280;59655;42.590;23.364;2024-03-23T02:33:30;91393.97;;;5.59
71807;BMP280;59655;42.590;23.364;2024-03-23T02:35:56;91389.91;;;5.58
71807;BMP280;59655;42.590;23.364;2024-03-23T02:38:21;91394.66;;;5.59
71807;BMP280;59655;42.590;23.364;2024-03-23T02:40:47;91386.84;;;5.54
71807;BMP280;59655;42.590;23.364;2024-03-23T02:43:12;91390.28;;;5.49
71807;BMP280;59655;42.590;23.364;2024-03-23T02:45:37;91388.69;;;5.59
71807;BMP280;59655;42.590;23.364;2024-03-23T02:48:03;91392.75;;;5.60
71807;BMP280;59655;42.590;23.364;2024-03-23T02:50:29;91397.03;;;5.44
71807;BMP280;59655;42.590;23.364;2024-03-23T02:52:54;91388.28;;;5.36
71807;BMP280;59655;42.590;23.364;2024-03-23T02:55:19;91386.03;;;5.45
71807;BMP280;59655;42.590;23.364;2024-03-23T02:57:45;91384.88;;;5.41
71807;BMP280;59655;42.590;23.364;2024-03-23T03:00:10;91385.88;;;5.38
71807;BMP280;59655;42.590;23.364;2024-03-23T03:02:36;91380.19;;;5.34
71807;BMP280;59655;42.590;23.364;2024-03-23T03:05:03;91389.38;;;5.27
71807;BMP280;59655;42.590;23.364;2024-03-23T03:07:30;91386.28;;;5.10
71807;BMP280;59655;42.590;23.364;2024-03-23T03:09:55;91388.38;;;5.11
71807;BMP280;59655;42.590;23.364;2024-03-23T03:12:21;91384.19;;;5.21
71807;BMP280;59655;42.590;23.364;2024-03-23T03:14:46;91378.56;;;5.31
71807;BMP280;59655;42.590;23.364;2024-03-23T03:17:12;91381.09;;;5.36
71807;BMP280;59655;42.590;23.364;2024-03-23T03:19:37;91383.94;;;5.38
71807;BMP280;59655;42.590;23.364;2024-03-23T03:22:02;91377.22;;;5.43
71807;BMP280;59655;42.590;23.364;2024-03-23T03:24:29;91385.09;;;5.43
71807;BMP280;59655;42.590;23.364;2024-03-23T03:26:54;91383.66;;;5.42
71807;BMP280;59655;42.590;23.364;2024-03-23T03:29:20;91383.94;;;5.38
71807;BMP280;59655;42.590;23.364;2024-03-23T03:31:45;91391.34;;;5.40
71807;BMP280;59655;42.590;23.364;2024-03-23T03:34:11;91378.41;;;5.23
71807;BMP280;59655;42.590;23.364;2024-03-23T03:36:36;91385.09;;;5.05
71807;BMP280;59655;42.590;23.364;2024-03-23T03:39:02;91390.09;;;5.09
71807;BMP280;59655;42.590;23.364;2024-03-23T03:41:31;91384.56;;;5.12
71807;BMP280;59655;42.590;23.364;2024-03-23T03:43:57;91386.53;;;5.06
71807;BMP280;59655;42.590;23.364;2024-03-23T03:46:26;91382.69;;;5.07
71807;BMP280;59655;42.590;23.364;2024-03-23T03:48:51;91387.88;;;5.13
71807;BMP280;59655;42.590;23.364;2024-03-23T03:51:17;91381.22;;;5.12
71807;BMP280;59655;42.590;23.364;2024-03-23T03:53:42;91384.13;;;5.08
71807;BMP280;59655;42.590;23.364;2024-03-23T03:56:07;91385.25;;;5.13
71807;BMP280;59655;42.590;23.364;2024-03-23T03:58:33;91396.03;;;4.90
71807;BMP280;59655;42.590;23.364;2024-03-23T04:00:58;91384.03;;;4.76
71807;BMP280;59655;42.590;23.364;2024-03-23T04:03:24;91389.13;;;4.68
71807;BMP280;59655;42.590;23.364;2024-03-23T04:05:53;91389.94;;;4.57
71807;BMP280;59655;42.590;23.364;2024-03-23T04:08:19;91395.53;;;4.73
71807;BMP280;59655;42.590;23.364;2024-03-23T04:10:45;91388.09;;;4.77
71807;BMP280;59655;42.590;23.364;2024-03-23T04:13:11;91380.41;;;4.60
71807;BMP280;59655;42.590;23.364;2024-03-23T04:15:37;91392.25;;;4.67
71807;BMP280;59655;42.590;23.364;2024-03-23T04:18:02;91385.22;;;4.56
71807;BMP280;59655;42.590;23.364;2024-03-23T04:20:27;91392.66;;;4.52
71807;BMP280;59655;42.590;23.364;2024-03-23T04:22:53;91394.59;;;4.70
71807;BMP280;59655;42.590;23.364;2024-03-23T04:25:19;91388.41;;;4.68
71807;BMP280;59655;42.590;23.364;2024-03-23T04:27:44;91381.94;;;4.69
71807;BMP280;59655;42.590;23.364;2024-03-23T04:30:10;91386.09;;;4.83
71807;BMP280;59655;42.590;23.364;2024-03-23T04:32:39;91381.28;;;4.87
71807;BMP280;59655;42.590;23.364;2024-03-23T04:35:05;91387.78;;;4.80
71807;BMP280;59655;42.590;23.364;2024-03-23T04:37:32;91389.00;;;4.79
71807;BMP280;59655;42.590;23.364;2024-03-23T04:40:00;91393.41;;;4.71
71807;BMP280;59655;42.590;23.364;2024-03-23T04:42:25;91391.53;;;4.66
71807;BMP280;59655;42.590;23.364;2024-03-23T04:44:51;91394.16;;;4.66
71807;BMP280;59655;42.590;23.364;2024-03-23T04:47:16;91391.09;;;4.62
71807;BMP280;59655;42.590;23.364;2024-03-23T04:49:41;91392.88;;;4.54
71807;BMP280;59655;42.590;23.364;2024-03-23T04:52:07;91398.88;;;4.73
71807;BMP280;59655;42.590;23.364;2024-03-23T04:54:32;91399.31;;;4.77
71807;BMP280;59655;42.590;23.364;2024-03-23T04:56:58;91394.41;;;4.87
71807;BMP280;59655;42.590;23.364;2024-03-23T04:59:24;91402.47;;;4.95
71807;BMP280;59655;42.590;23.364;2024-03-23T05:01:50;91398.03;;;5.03
71807;BMP280;59655;42.590;23.364;2024-03-23T05:04:15;91404.16;;;5.11
71807;BMP280;59655;42.590;23.364;2024-03-23T05:06:40;91402.16;;;5.17
71807;BMP280;59655;42.590;23.364;2024-03-23T05:09:06;91400.19;;;5.23
71807;BMP280;59655;42.590;23.364;2024-03-23T05:11:32;91389.81;;;5.31
71807;BMP280;59655;42.590;23.364;2024-03-23T05:13:58;91406.78;;;5.30
71807;BMP280;59655;42.590;23.364;2024-03-23T05:16:23;91395.56;;;5.30
71807;BMP280;59655;42.590;23.364;2024-03-23T05:18:49;91406.16;;;5.24
71807;BMP280;59655;42.590;23.364;2024-03-23T05:21:14;91396.47;;;5.32
71807;BMP280;59655;42.590;23.364;2024-03-23T05:23:39;91402.75;;;5.29
71807;BMP280;59655;42.590;23.364;2024-03-23T05:26:05;91390.53;;;5.32
71807;BMP280;59655;42.590;23.364;2024-03-23T05:28:31;91390.91;;;5.36
71807;BMP280;59655;42.590;23.364;2024-03-23T05:30:56;91395.91;;;5.39
71807;BMP280;59655;42.590;23.364;2024-03-23T05:33:24;91396.31;;;5.43
71807;BMP280;59655;42.590;23.364;2024-03-23T05:36:00;91393.41;;;5.47
71807;BMP280;59655;42.590;23.364;2024-03-23T05:38:25;91398.88;;;5.49
71807;BMP280;59655;42.590;23.364;2024-03-23T05:40:55;91398.88;;;5.49
71807;BMP280;59655;42.590;23.364;2024-03-23T05:43:21;91390.00;;;5.52
71807;BMP280;59655;42.590;23.364;2024-03-23T05:45:56;91390.19;;;5.54
71807;BMP280;59655;42.590;23.364;2024-03-23T05:48:22;91384.66;;;5.58
71807;BMP280;59655;42.590;23.364;2024-03-23T05:50:48;91391.22;;;5.64
71807;BMP280;59655;42.590;23.364;2024-03-23T05:53:15;91387.38;;;5.65
71807;BMP280;59655;42.590;23.364;2024-03-23T05:55:40;91383.06;;;5.68
71807;BMP280;59655;42.590;23.364;2024-03-23T05:58:06;91388.53;;;5.70
71807;BMP280;59655;42.590;23.364;2024-03-23T06:00:31;91387.50;;;5.73
71807;BMP280;59655;42.590;23.364;2024-03-23T06:02:56;91393.44;;;5.79
71807;BMP280;59655;42.590;23.364;2024-03-23T06:05:22;91382.59;;;5.83
71807;BMP280;59655;42.590;23.364;2024-03-23T06:07:49;91389.69;;;5.88
71807;BMP280;59655;42.590;23.364;2024-03-23T06:10:15;91389.91;;;5.90
71807;BMP280;59655;42.590;23.364;2024-03-23T06:12:40;91385.75;;;5.95
71807;BMP280;59655;42.590;23.364;2024-03-23T06:15:07;91385.22;;;5.96
71807;BMP280;59655;42.590;23.364;2024-03-23T06:17:38;91385.69;;;6.00
71807;BMP280;59655;42.590;23.364;2024-03-23T06:20:03;91382.22;;;6.05
71807;BMP280;59655;42.590;23.364;2024-03-23T06:22:29;91384.75;;;6.11
71807;BMP280;59655;42.590;23.364;2024-03-23T06:24:54;91391.16;;;6.16
71807;BMP280;59655;42.590;23.364;2024-03-23T06:27:20;91386.81;;;6.18
71807;BMP280;59655;42.590;23.364;2024-03-23T06:29:45;91388.63;;;6.23
71807;BMP280;59655;42.590;23.364;2024-03-23T06:32:10;91391.69;;;6.27
71807;BMP280;59655;42.590;23.364;2024-03-23T06:34:36;91392.38;;;6.28
71807;BMP280;59655;42.590;23.364;2024-03-23T06:37:01;91391.16;;;6.29
71807;BMP280;59655;42.590;23.364;2024-03-23T06:39:28;91393.00;;;6.34
71807;BMP280;59655;42.590;23.364;2024-03-23T06:41:54;91397.97;;;6.38
71807;BMP280;59655;42.590;23.364;2024-03-23T06:44:20;91395.03;;;6.41
71807;BMP280;59655;42.590;23.364;2024-03-23T06:46:46;91397.88;;;6.43
71807;BMP280;59655;42.590;23.364;2024-03-23T06:49:14;91391.91;;;6.43
71807;BMP280;59655;42.590;23.364;2024-03-23T06:51:39;91394.44;;;6.48
71807;BMP280;59655;42.590;23.364;2024-03-23T06:54:05;91392.81;;;6.59
71807;BMP280;59655;42.590;23.364;2024-03-23T06:56:30;91393.50;;;6.59
71807;BMP280;59655;42.590;23.364;2024-03-23T06:58:56;91391.78;;;6.62
71807;BMP280;59655;42.590;23.364;2024-03-23T07:01:22;91388.13;;;6.65
71807;BMP280;59655;42.590;23.364;2024-03-23T07:03:47;91389.75;;;6.68
71807;BMP280;59655;42.590;23.364;2024-03-23T07:06:13;91385.91;;;6.69
71807;BMP280;59655;42.590;23.364;2024-03-23T07:08:38;91382.47;;;6.74
71807;BMP280;59655;42.590;23.364;2024-03-23T07:11:03;91384.97;;;6.80
71807;BMP280;59655;42.590;23.364;2024-03-23T07:13:30;91387.53;;;6.85
71807;BMP280;59655;42.590;23.364;2024-03-23T07:15:55;91385.78;;;6.88
71807;BMP280;59655;42.590;23.364;2024-03-23T07:18:21;91378.06;;;6.90
71807;BMP280;59655;42.590;23.364;2024-03-23T07:20:57;91387.06;;;6.95
71807;BMP280;59655;42.590;23.364;2024-03-23T07:23:24;91382.31;;;6.93
71807;BMP280;59655;42.590;23.364;2024-03-23T07:26:03;91384.88;;;6.99
71807;BMP280;59655;42.590;23.364;2024-03-23T07:28:29;91381.00;;;7.00
71807;BMP280;59655;42.590;23.364;2024-03-23T07:31:15;91377.16;;;7.01
71807;BMP280;59655;42.590;23.364;2024-03-23T07:33:45;91373.44;;;7.04
71807;BMP280;59655;42.590;23.364;2024-03-23T07:36:10;91371.63;;;7.12
71807;BMP280;59655;42.590;23.364;2024-03-23T07:38:36;91373.25;;;7.15
71807;BMP280;59655;42.590;23.364;2024-03-23T07:41:11;91373.94;;;7.16
71807;BMP280;59655;42.590;23.364;2024-03-23T07:43:38;91365.50;;;7.17
71807;BMP280;59655;42.590;23.364;2024-03-23T07:46:04;91371.19;;;7.21
71807;BMP280;59655;42.590;23.364;2024-03-23T07:48:30;91372.81;;;7.24
71807;BMP280;59655;42.590;23.364;2024-03-23T07:51:07;91374.41;;;7.27
71807;BMP280;59655;42.590;23.364;2024-03-23T07:53:34;91365.88;;;7.35
71807;BMP280;59655;42.590;23.364;2024-03-23T07:56:01;91365.34;;;7.36
71807;BMP280;59655;42.590;23.364;2024-03-23T07:58:27;91366.06;;;7.37
71807;BMP280;59655;42.590;23.364;2024-03-23T08:00:53;91369.16;;;7.48
71807;BMP280;59655;42.590;23.364;2024-03-23T08:03:19;91373.72;;;7.48
71807;BMP280;59655;42.590;23.364;2024-03-23T08:05:45;91370.59;;;7.49
71807;BMP280;59655;42.590;23.364;2024-03-23T08:08:10;91370.09;;;7.51
71807;BMP280;59655;42.590;23.364;2024-03-23T08:10:36;91371.56;;;7.60
71807;BMP280;59655;42.590;23.364;2024-03-23T08:13:02;91372.09;;;7.66
71807;BMP280;59655;42.590;23.364;2024-03-23T08:15:46;91373.03;;;7.68
71807;BMP280;59655;42.590;23.364;2024-03-23T08:18:12;91377.28;;;7.71
71807;BMP280;59655;42.590;23.364;2024-03-23T08:20:37;91372.91;;;7.74
71807;BMP280;59655;42.590;23.364;2024-03-23T08:23:04;91373.63;;;7.74
71807;BMP280;59655;42.590;23.364;2024-03-23T08:25:33;91373.97;;;7.79
71807;BMP280;59655;42.590;23.364;2024-03-23T08:27:59;91371.53;;;7.81
71807;BMP280;59655;42.590;23.364;2024-03-23T08:30:24;91365.56;;;7.80
71807;BMP280;59655;42.590;23.364;2024-03-23T08:32:50;91368.41;;;7.82
71807;BMP280;59655;42.590;23.364;2024-03-23T08:35:15;91368.75;;;7.86
71807;BMP280;59655;42.590;23.364;2024-03-23T08:37:41;91364.38;;;7.89
71807;BMP280;59655;42.590;23.364;2024-03-23T08:40:06;91362.13;;;7.93
71807;BMP280;59655;42.590;23.364;2024-03-23T08:42:33;91361.81;;;7.96
71807;BMP280;59655;42.590;23.364;2024-03-23T08:45:02;91364.09;;;8.00
71807;BMP280;59655;42.590;23.364;2024-03-23T08:47:28;91365.53;;;8.01
71807;BMP280;59655;42.590;23.364;2024-03-23T08:49:54;91362.16;;;8.01
71807;BMP280;59655;42.590;23.364;2024-03-23T08:52:20;91359.94;;;8.05
71807;BMP280;59655;42.590;23.364;2024-03-23T08:54:48;91350.97;;;8.08
71807;BMP280;59655;42.590;23.364;2024-03-23T08:57:13;91349.59;;;8.14
71807;BMP280;59655;42.590;23.364;2024-03-23T08:59:41;91345.22;;;8.17
71807;BMP280;59655;42.590;23.364;2024-03-23T09:02:11;91347.69;;;8.23
71807;BMP280;59655;42.590;23.364;2024-03-23T09:04:36;91344.00;;;8.26
71807;BMP280;59655;42.590;23.364;2024-03-23T09:07:02;91352.84;;;8.28
71807;BMP280;59655;42.590;23.364;2024-03-23T09:09:27;91343.34;;;8.33
71807;BMP280;59655;42.590;23.364;2024-03-23T09:11:55;91335.59;;;8.35
71807;BMP280;59655;42.590;23.364;2024-03-23T09:14:21;91340.88;;;8.35
71807;BMP280;59655;42.590;23.364;2024-03-23T09:16:52;91335.78;;;8.37
71807;BMP280;59655;42.590;23.364;2024-03-23T09:19:19;91334.91;;;8.42
71807;BMP280;59655;42.590;23.364;2024-03-23T09:21:45;91327.41;;;8.54
71807;BMP280;59655;42.590;23.364;2024-03-23T09:24:10;91327.06;;;8.57
71807;BMP280;59655;42.590;23.364;2024-03-23T09:26:36;91313.84;;;8.57
71807;BMP280;59655;42.590;23.364;2024-03-23T09:29:03;91322.50;;;8.66
71807;BMP280;59655;42.590;23.364;2024-03-23T09:31:29;91310.38;;;8.70
71807;BMP280;59655;42.590;23.364;2024-03-23T09:33:54;91309.31;;;8.73
71807;BMP280;59655;42.590;23.364;2024-03-23T09:36:20;91307.75;;;8.78
71807;BMP280;59655;42.590;23.364;2024-03-23T09:38:45;91305.66;;;8.84
71807;BMP280;59655;42.590;23.364;2024-03-23T09:41:15;91304.78;;;8.89
71807;BMP280;59655;42.590;23.364;2024-03-23T09:43:41;91302.69;;;8.95
71807;BMP280;59655;42.590;23.364;2024-03-23T09:46:07;91295.25;;;8.94
71807;BMP280;59655;42.590;23.364;2024-03-23T09:48:35;91299.16;;;9.00
71807;BMP280;59655;42.590;23.364;2024-03-23T09:51:04;91295.28;;;9.09
71807;BMP280;59655;42.590;23.364;2024-03-23T09:53:39;91285.41;;;9.10
71807;BMP280;59655;42.590;23.364;2024-03-23T09:56:08;91280.47;;;9.14
71807;BMP280;59655;42.590;23.364;2024-03-23T09:58:34;91291.22;;;9.16
71807;BMP280;59655;42.590;23.364;2024-03-23T10:00:59;91286.13;;;9.18
71807;BMP280;59655;42.590;23.364;2024-03-23T10:03:24;91282.78;;;9.25
71807;BMP280;59655;42.590;23.364;2024-03-23T10:06:04;91264.41;;;9.27
71807;BMP280;59655;42.590;23.364;2024-03-23T10:08:33;91271.28;;;9.30
71807;BMP280;59655;42.590;23.364;2024-03-23T10:11:13;91266.56;;;9.29
71807;BMP280;59655;42.590;23.364;2024-03-23T10:13:44;91269.53;;;9.40
71807;BMP280;59655;42.590;23.364;2024-03-23T10:16:10;91268.84;;;9.48
71807;BMP280;59655;42.590;23.364;2024-03-23T10:18:39;91262.63;;;9.53
71807;BMP280;59655;42.590;23.364;2024-03-23T10:21:10;91263.13;;;9.59
71807;BMP280;59655;42.590;23.364;2024-03-23T10:23:38;91253.44;;;9.69
71807;BMP280;59655;42.590;23.364;2024-03-23T10:26:24;91252.91;;;9.78
71807;BMP280;59655;42.590;23.364;2024-03-23T10:28:58;91254.13;;;9.77
71807;BMP280;59655;42.590;23.364;2024-03-23T10:31:28;91246.03;;;9.75
71807;BMP280;59655;42.590;23.364;2024-03-23T10:33:54;91236.66;;;9.74
71807;BMP280;59655;42.590;23.364;2024-03-23T10:36:21;91243.88;;;9.81
71807;BMP280;59655;42.590;23.364;2024-03-23T10:38:47;91242.97;;;9.86
71807;BMP280;59655;42.590;23.364;2024-03-23T10:41:14;91239.06;;;9.87
71807;BMP280;59655;42.590;23.364;2024-03-23T10:43:39;91240.69;;;9.91
71807;BMP280;59655;42.590;23.364;2024-03-23T10:46:05;91229.34;;;9.98
71807;BMP280;59655;42.590;23.364;2024-03-23T10:48:33;91227.41;;;9.98
71807;BMP280;59655;42.590;23.364;2024-03-23T10:50:59;91227.56;;;10.00
71807;BMP280;59655;42.590;23.364;2024-03-23T10:53:28;91220.81;;;10.07
71807;BMP280;59655;42.590;23.364;2024-03-23T10:55:55;91217.44;;;10.14
71807;BMP280;59655;42.590;23.364;2024-03-23T10:58:31;91212.84;;;10.15
71807;BMP280;59655;42.590;23.364;2024-03-23T11:00:57;91213.53;;;10.23
71807;BMP280;59655;42.590;23.364;2024-03-23T11:03:51;91200.47;;;10.17
71807;BMP280;59655;42.590;23.364;2024-03-23T11:06:38;91195.88;;;10.18
71807;BMP280;59655;42.590;23.364;2024-03-23T11:09:47;91190.03;;;10.19
71807;BMP280;59655;42.590;23.364;2024-03-23T11:17:19;91175.50;;;10.28
71807;BMP280;59655;42.590;23.364;2024-03-23T11:20:01;91171.56;;;10.37
71807;BMP280;59655;42.590;23.364;2024-03-23T11:22:40;91177.53;;;10.45
71807;BMP280;59655;42.590;23.364;2024-03-23T11:27:44;91158.53;;;10.56
71807;BMP280;59655;42.590;23.364;2024-03-23T11:30:24;91161.50;;;10.60
71807;BMP280;59655;42.590;23.364;2024-03-23T11:32:51;91155.81;;;10.64
71807;BMP280;59655;42.590;23.364;2024-03-23T11:35:37;91145.53;;;10.68
71807;BMP280;59655;42.590;23.364;2024-03-23T11:38:17;91145.47;;;10.75
71807;BMP280;59655;42.590;23.364;2024-03-23T11:40:49;91132.97;;;10.68
71807;BMP280;59655;42.590;23.364;2024-03-23T11:43:17;91136.47;;;10.79
71807;BMP280;59655;42.590;23.364;2024-03-23T11:45:51;91131.75;;;10.87
71807;BMP280;59655;42.590;23.364;2024-03-23T11:48:23;91133.00;;;10.86
71807;BMP280;59655;42.590;23.364;2024-03-23T11:50:58;91123.25;;;10.88
71807;BMP280;59655;42.590;23.364;2024-03-23T11:53:24;91118.97;;;10.93
71807;BMP280;59655;42.590;23.364;2024-03-23T11:55:53;91115.84;;;10.87
71807;BMP280;59655;42.590;23.364;2024-03-23T11:58:22;91119.34;;;10.89
71807;BMP280;59655;42.590;23.364;2024-03-23T12:00:55;91103.22;;;10.95
71807;BMP280;59655;42.590;23.364;2024-03-23T12:03:24;91104.47;;;11.11
71807;BMP280;59655;42.590;23.364;2024-03-23T12:06:00;91100.19;;;11.16
71807;BMP280;59655;42.590;23.364;2024-03-23T12:08:36;91093.56;;;11.07
71807;BMP280;59655;42.590;23.364;2024-03-23T12:11:10;91094.72;;;11.14
71807;BMP280;59655;42.590;23.364;2024-03-23T12:13:37;91089.41;;;11.14
71807;BMP280;59655;42.590;23.364;2024-03-23T12:18:34;91074.88;;;11.32
71807;BMP280;59655;42.590;23.364;2024-03-23T12:21:00;91077.59;;;11.42
71807;BMP280;59655;42.590;23.364;2024-03-23T12:23:25;91069.38;;;11.48
71807;BMP280;59655;42.590;23.364;2024-03-23T12:25:51;91065.13;;;11.62
71807;BMP280;59655;42.590;23.364;2024-03-23T12:28:16;91070.19;;;11.68
71807;BMP280;59655;42.590;23.364;2024-03-23T12:30:42;91065.63;;;11.78
71807;BMP280;59655;42.590;23.364;2024-03-23T12:33:07;91067.88;;;11.81
71807;BMP280;59655;42.590;23.364;2024-03-23T12:35:33;91065.63;;;11.78
71807;BMP280;59655;42.590;23.364;2024-03-23T12:37:59;91055.06;;;11.97
71807;BMP280;59655;42.590;23.364;2024-03-23T12:40:24;91068.69;;;12.11
71807;BMP280;59655;42.590;23.364;2024-03-23T12:42:50;91048.06;;;12.29
71807;BMP280;59655;42.590;23.364;2024-03-23T12:45:15;91053.59;;;12.50
71807;BMP280;59655;42.590;23.364;2024-03-23T12:47:41;91046.72;;;12.67
71807;BMP280;59655;42.590;23.364;2024-03-23T12:50:06;91044.81;;;12.97
71807;BMP280;59655;42.590;23.364;2024-03-23T12:52:33;91039.44;;;13.35
71807;BMP280;59655;42.590;23.364;2024-03-23T12:54:58;91038.16;;;13.97
71807;BMP280;59655;42.590;23.364;2024-03-23T12:57:24;91028.81;;;14.82
71807;BMP280;59655;42.590;23.364;2024-03-23T12:59:53;91033.94;;;16.26
71807;BMP280;59655;42.590;23.364;2024-03-23T13:02:21;91030.75;;;18.38
71807;BMP280;59655;42.590;23.364;2024-03-23T13:04:51;91025.16;;;20.34
71807;BMP280;59655;42.590;23.364;2024-03-23T13:07:17;91030.69;;;21.65
71807;BMP280;59655;42.590;23.364;2024-03-23T13:09:44;91028.59;;;22.23
71807;BMP280;59655;42.590;23.364;2024-03-23T13:12:10;91022.88;;;23.51
71807;BMP280;59655;42.590;23.364;2024-03-23T13:14:37;91012.66;;;24.02
71807;BMP280;59655;42.590;23.364;2024-03-23T13:17:02;91017.00;;;24.41
71807;BMP280;59655;42.590;23.364;2024-03-23T13:19:29;91006.41;;;24.83
71807;BMP280;59655;42.590;23.364;2024-03-23T13:21:59;91012.47;;;25.46
71807;BMP280;59655;42.590;23.364;2024-03-23T13:24:26;91012.25;;;25.72
71807;BMP280;59655;42.590;23.364;2024-03-23T13:26:53;91012.25;;;25.72
71807;BMP280;59655;42.590;23.364;2024-03-23T13:29:19;91001.31;;;26.08
71807;BMP280;59655;42.590;23.364;2024-03-23T13:31:48;91000.41;;;26.38
71807;BMP280;59655;42.590;23.364;2024-03-23T13:34:15;90999.34;;;26.57
71807;BMP280;59655;42.590;23.364;2024-03-23T13:36:41;91003.28;;;26.46
71807;BMP280;59655;42.590;23.364;2024-03-23T13:39:07;90996.47;;;26.97
71807;BMP280;59655;42.590;23.364;2024-03-23T13:41:45;91000.63;;;27.03
71807;BMP280;59655;42.590;23.364;2024-03-23T13:44:12;90993.34;;;27.17
71807;BMP280;59655;42.590;23.364;2024-03-23T13:46:39;90992.63;;;27.15
71807;BMP280;59655;42.590;23.364;2024-03-23T13:49:06;90985.25;;;27.25
71807;BMP280;59655;42.590;23.364;2024-03-23T13:51:32;90977.75;;;27.24
71807;BMP280;59655;42.590;23.364;2024-03-23T13:53:58;90986.06;;;27.36
71807;BMP280;59655;42.590;23.364;2024-03-23T13:56:28;90976.84;;;27.07
71807;BMP280;59655;42.590;23.364;2024-03-23T13:58:55;90979.03;;;26.64
71807;BMP280;59655;42.590;23.364;2024-03-23T14:01:21;90982.25;;;26.51
71807;BMP280;59655;42.590;23.364;2024-03-23T14:03:46;90974.06;;;26.04
71807;BMP280;59655;42.590;23.364;2024-03-23T14:06:12;90978.13;;;25.63
71807;BMP280;59655;42.590;23.364;2024-03-23T14:08:37;90971.47;;;25.72
71807;BMP280;59655;42.590;23.364;2024-03-23T14:11:07;90967.06;;;25.53
71807;BMP280;59655;42.590;23.364;2024-03-23T14:13:34;90964.97;;;25.49
71807;BMP280;59655;42.590;23.364;2024-03-23T14:16:00;90975.84;;;25.15
71807;BMP280;59655;42.590;23.364;2024-03-23T14:18:25;90966.19;;;25.42
71807;BMP280;59655;42.590;23.364;2024-03-23T14:20:57;90967.84;;;25.59
71807;BMP280;59655;42.590;23.364;2024-03-23T14:23:25;90962.28;;;24.81
71807;BMP280;59655;42.590;23.364;2024-03-23T14:25:55;90962.47;;;24.29
71807;BMP280;59655;42.590;23.364;2024-03-23T14:28:21;90959.91;;;23.79
71807;BMP280;59655;42.590;23.364;2024-03-23T14:30:48;90949.19;;;23.05
71807;BMP280;59655;42.590;23.364;2024-03-23T14:33:14;90946.09;;;22.22
71807;BMP280;59655;42.590;23.364;2024-03-23T14:35:40;90951.50;;;21.01
71807;BMP280;59655;42.590;23.364;2024-03-23T14:38:06;90948.47;;;21.31
71807;BMP280;59655;42.590;23.364;2024-03-23T14:40:31;90948.13;;;21.00
71807;BMP280;59655;42.590;23.364;2024-03-23T14:42:57;90944.59;;;20.96
71807;BMP280;59655;42.590;23.364;2024-03-23T14:45:22;90939.75;;;20.74
71807;BMP280;59655;42.590;23.364;2024-03-23T14:47:50;90941.22;;;20.42
71807;BMP280;59655;42.590;23.364;2024-03-23T14:50:15;90945.38;;;20.27
71807;BMP280;59655;42.590;23.364;2024-03-23T14:52:47;90939.50;;;19.97
71807;BMP280;59655;42.590;23.364;2024-03-23T14:55:13;90937.84;;;19.90
71807;BMP280;59655;42.590;23.364;2024-03-23T14:57:39;90935.81;;;19.72
71807;BMP280;59655;42.590;23.364;2024-03-23T15:00:09;90933.00;;;19.52
71807;BMP280;59655;42.590;23.364;2024-03-23T15:02:39;90923.38;;;19.31
71807;BMP280;59655;42.590;23.364;2024-03-23T15:05:05;90923.00;;;19.23
71807;BMP280;59655;42.590;23.364;2024-03-23T15:07:34;90923.50;;;19.04